Time;durP1;ratioP1;P1;durP2;ratioP2;P2;SDS_P1;SDS_P2;PMS_P1;PMS_P2;Temp;Humidity;BMP_temperature;BMP_pressure;BME280_temperature;BME280_humidity;BME280_pressure;Samples;Min_cycle;Max_cycle;Signal;HPM_P1;HPM_P2
2022/01/12 00:02:22;;;;;;;15.57;8.73;;;;;;;;;;5054706;28;20191;-71
2022/01/12 00:04:49;;;;;;;25.70;10.70;;;;;;;;;;5072370;28;20241;-68
2022/01/12 00:07:17;;;;;;;18.00;9.60;;;;;;;;;;5071118;28;20202;-68
2022/01/12 00:09:44;;;;;;;17.17;9.63;;;;;;;;;;5054752;28;20657;-68
2022/01/12 00:12:12;;;;;;;21.50;9.63;;;;;;;;;;5071082;28;20202;-68
2022/01/12 00:14:40;;;;;;;19.50;9.87;;;;;;;;;;5071525;28;20220;-68
2022/01/12 00:17:07;;;;;;;21.57;9.83;;;;;;;;;;5070779;28;20252;-68
2022/01/12 00:19:35;;;;;;;20.10;9.63;;;;;;;;;;5071138;28;20202;-69
2022/01/12 00:22:02;;;;;;;19.83;9.53;;;;;;;;;;5054525;28;20200;-68
2022/01/12 00:24:51;;;;;;;19.00;9.57;;;;;;;;;;5070753;28;20645;-68
2022/01/12 00:35:19;;;;;;;17.87;9.00;;;;;;;;;;5087660;28;20187;-70
2022/01/12 00:37:47;;;;;;;19.57;9.00;;;;;;;;;;5070977;28;20191;-70
2022/01/12 00:40:14;;;;;;;17.87;8.83;;;;;;;;;;5070514;28;20244;-71
2022/01/12 00:42:42;;;;;;;23.77;9.37;;;;;;;;;;5070710;28;20605;-70
2022/01/12 00:45:11;;;;;;;18.37;9.03;;;;;;;;;;5054764;28;20736;-70
2022/01/12 00:47:38;;;;;;;21.50;9.80;;;;;;;;;;5070845;28;20276;-69
2022/01/12 00:50:07;;;;;;;15.13;8.57;;;;;;;;;;5071627;28;20203;-70
2022/01/12 00:52:35;;;;;;;20.33;9.33;;;;;;;;;;5070604;28;20196;-70
2022/01/12 00:55:03;;;;;;;16.00;8.47;;;;;;;;;;5070725;28;20195;-70
2022/01/12 00:57:31;;;;;;;17.77;8.37;;;;;;;;;;5054417;28;20548;-71
2022/01/12 00:59:58;;;;;;;19.73;7.93;;;;;;;;;;5054164;28;20195;-71
2022/01/12 01:02:26;;;;;;;18.43;9.03;;;;;;;;;;5070436;28;20550;-71
2022/01/12 01:04:54;;;;;;;14.17;8.63;;;;;;;;;;5054005;28;20229;-70
2022/01/12 01:07:21;;;;;;;17.07;8.77;;;;;;;;;;5070552;28;20207;-70
2022/01/12 01:10:00;;;;;;;15.90;8.00;;;;;;;;;;5070501;28;20199;-70
2022/01/12 01:12:28;;;;;;;18.57;9.00;;;;;;;;;;5072469;28;20180;-68
2022/01/12 01:15:07;;;;;;;17.53;8.33;;;;;;;;;;5054014;28;20219;-70
2022/01/12 01:25:46;;;;;;;17.27;7.97;;;;;;;;;;5073397;28;20572;-70
2022/01/12 01:28:15;;;;;;;15.10;8.53;;;;;;;;;;5074177;28;20192;-68
2022/01/12 01:30:45;;;;;;;14.83;8.37;;;;;;;;;;5075170;28;20231;-71
2022/01/12 01:33:15;;;;;;;19.93;9.73;;;;;;;;;;5074006;28;20298;-69
2022/01/12 01:35:52;;;;;;;22.73;10.33;;;;;;;;;;5058254;28;20179;-69
2022/01/12 01:38:23;;;;;;;17.97;8.43;;;;;;;;;;5075496;28;20176;-68
2022/01/12 01:40:50;;;;;;;17.77;8.73;;;;;;;;;;5074759;28;20661;-68
2022/01/12 01:43:43;;;;;;;20.43;8.83;;;;;;;;;;5057086;28;20248;-68
2022/01/12 01:54:18;;;;;;;18.40;8.77;;;;;;;;;;5058402;28;20575;-68
2022/01/12 01:56:45;;;;;;;21.00;9.50;;;;;;;;;;5073162;28;20200;-69
2022/01/12 01:59:13;;;;;;;21.63;9.70;;;;;;;;;;5057192;28;20316;-70
2022/01/12 02:01:44;;;;;;;30.20;9.90;;;;;;;;;;5057353;28;20187;-68
2022/01/12 02:04:12;;;;;;;24.20;9.60;;;;;;;;;;5073251;28;20234;-68
2022/01/12 02:06:40;;;;;;;23.23;10.40;;;;;;;;;;5057037;28;20207;-71
2022/01/12 02:09:10;;;;;;;20.60;9.40;;;;;;;;;;5073448;28;20621;-68
2022/01/12 02:11:58;;;;;;;19.07;8.77;;;;;;;;;;5063936;28;20208;-67
2022/01/12 02:14:32;;;;;;;19.27;9.03;;;;;;;;;;5089972;28;20210;-68
2022/01/12 02:17:07;;;;;;;17.40;8.83;;;;;;;;;;5073490;28;20274;-68
2022/01/12 02:35:53;;;;;;;15.90;8.53;;;;;;;;;;5089853;28;20182;-68
2022/01/12 02:41:02;;;;;;;24.10;8.63;;;;;;;;;;5058265;28;20664;-69
2022/01/12 02:50:34;;;;;;;15.70;8.80;;;;;;;;;;5072687;28;20199;-68
2022/01/12 02:54:21;;;;;;;17.07;9.17;;;;;;;;;;5089148;28;20217;-68
2022/01/12 02:56:50;;;;;;;18.47;9.13;;;;;;;;;;5056262;28;20187;-68
2022/01/12 02:59:17;;;;;;;19.57;9.47;;;;;;;;;;5072486;28;20202;-70
2022/01/12 03:04:26;;;;;;;20.17;9.63;;;;;;;;;;5088875;28;20183;-69
2022/01/12 03:07:03;;;;;;;18.67;9.40;;;;;;;;;;5056037;28;20206;-69
2022/01/12 03:09:32;;;;;;;17.17;9.60;;;;;;;;;;5057562;28;20179;-68
2022/01/12 03:12:01;;;;;;;20.10;9.73;;;;;;;;;;5072273;28;20218;-68
2022/01/12 03:14:28;;;;;;;20.20;10.97;;;;;;;;;;5055404;28;20673;-68
2022/01/12 03:16:56;;;;;;;19.20;10.60;;;;;;;;;;5073071;28;20256;-68
2022/01/12 03:19:28;;;;;;;19.97;10.27;;;;;;;;;;5056436;28;20591;-68
2022/01/12 03:21:56;;;;;;;19.73;10.33;;;;;;;;;;5071885;28;20202;-68
2022/01/12 03:24:23;;;;;;;19.43;9.87;;;;;;;;;;5071618;28;20199;-70
2022/01/12 03:26:51;;;;;;;21.23;11.67;;;;;;;;;;5071862;28;20206;-70
2022/01/12 03:29:19;;;;;;;18.57;9.90;;;;;;;;;;5055447;28;20597;-70
2022/01/12 03:31:46;;;;;;;19.73;10.70;;;;;;;;;;5071309;28;20735;-68
2022/01/12 03:34:26;;;;;;;21.77;12.17;;;;;;;;;;5071598;28;20227;-69
2022/01/12 03:39:30;;;;;;;22.07;12.03;;;;;;;;;;5056428;28;20179;-70
2022/01/12 03:41:58;;;;;;;22.00;11.83;;;;;;;;;;5054895;28;20199;-70
2022/01/12 03:44:26;;;;;;;20.13;11.73;;;;;;;;;;5071536;28;20203;-70
2022/01/12 03:46:54;;;;;;;18.97;9.07;;;;;;;;;;5071151;28;20210;-68
2022/01/12 03:49:22;;;;;;;19.77;11.27;;;;;;;;;;5070583;28;20253;-69
2022/01/12 03:51:50;;;;;;;25.57;12.63;;;;;;;;;;5071431;28;20653;-68
2022/01/12 03:54:20;;;;;;;19.73;11.60;;;;;;;;;;5054714;28;20215;-71
2022/01/12 03:56:49;;;;;;;24.43;12.60;;;;;;;;;;5054608;28;20200;-70
2022/01/12 03:59:16;;;;;;;24.23;12.90;;;;;;;;;;5054600;28;20281;-70
2022/01/12 04:01:44;;;;;;;27.00;12.23;;;;;;;;;;5070946;28;20199;-70
2022/01/12 04:04:21;;;;;;;21.97;11.93;;;;;;;;;;5054786;28;20206;-71
2022/01/12 04:09:47;;;;;;;23.57;11.40;;;;;;;;;;5058889;28;20175;-70
2022/01/12 04:12:16;;;;;;;24.63;11.83;;;;;;;;;;5054496;28;20198;-70
2022/01/12 04:14:44;;;;;;;19.03;11.60;;;;;;;;;;5070782;28;20630;-70
2022/01/12 04:17:11;;;;;;;20.70;10.83;;;;;;;;;;5054567;28;20645;-69
2022/01/12 04:19:43;;;;;;;16.83;9.37;;;;;;;;;;5055379;28;20618;-70
2022/01/12 04:23:16;;;;;;;19.97;11.07;;;;;;;;;;5070847;28;20199;-71
2022/01/12 04:25:05;;;;;;;18.60;10.13;;;;;;;;;;5070651;28;20207;-70
2022/01/12 04:27:32;;;;;;;23.37;11.90;;;;;;;;;;5037907;28;20206;-69
2022/01/12 04:30:00;;;;;;;23.03;11.57;;;;;;;;;;5054520;28;20191;-70
2022/01/12 04:32:30;;;;;;;21.60;11.13;;;;;;;;;;5070877;28;20231;-70
2022/01/12 04:34:58;;;;;;;22.50;12.13;;;;;;;;;;5070637;28;20214;-71
2022/01/12 04:37:25;;;;;;;20.53;11.70;;;;;;;;;;5072120;28;20187;-69
2022/01/12 04:39:53;;;;;;;18.27;11.03;;;;;;;;;;5054119;28;20657;-72
2022/01/12 04:42:20;;;;;;;21.40;10.63;;;;;;;;;;5054094;28;20572;-72
2022/01/12 04:44:49;;;;;;;17.23;8.90;;;;;;;;;;5054365;28;20191;-72
2022/01/12 04:47:39;;;;;;;18.63;8.93;;;;;;;;;;5070705;28;20286;-72
2022/01/12 04:50:04;;;;;;;17.53;10.60;;;;;;;;;;5056828;28;20203;-72
2022/01/12 04:52:32;;;;;;;15.97;8.70;;;;;;;;;;5037982;28;20206;-72
2022/01/12 04:54:59;;;;;;;17.30;9.60;;;;;;;;;;5070543;28;20219;-70
2022/01/12 04:57:27;;;;;;;17.63;9.37;;;;;;;;;;5053939;28;20197;-71
2022/01/12 05:00:06;;;;;;;22.57;9.93;;;;;;;;;;5055261;28;20227;-72
2022/01/12 05:08:17;;;;;;;13.33;7.33;;;;;;;;;;5054381;28;20290;-70
2022/01/12 05:13:28;;;;;;;19.53;9.50;;;;;;;;;;5078740;28;20266;-71
2022/01/12 05:15:58;;;;;;;19.77;9.57;;;;;;;;;;5063554;28;20317;-72
2022/01/12 05:18:27;;;;;;;19.40;9.83;;;;;;;;;;5073841;28;20230;-72
2022/01/12 05:20:54;;;;;;;18.73;8.73;;;;;;;;;;5054153;28;20267;-71
2022/01/12 05:23:23;;;;;;;17.57;8.63;;;;;;;;;;5057880;28;20223;-71
2022/01/12 05:25:52;;;;;;;18.67;10.60;;;;;;;;;;5056971;28;20215;-69
2022/01/12 05:28:24;;;;;;;21.10;10.50;;;;;;;;;;5074363;28;20227;-71
2022/01/12 05:30:54;;;;;;;18.60;9.97;;;;;;;;;;5073825;28;20600;-69
2022/01/12 05:33:25;;;;;;;22.90;10.83;;;;;;;;;;5057884;28;20264;-72
2022/01/12 05:35:55;;;;;;;18.10;10.80;;;;;;;;;;5073815;28;20226;-69
2022/01/12 05:38:24;;;;;;;9.87;5.23;;;;;;;;;;5057542;28;20297;-70
2022/01/12 05:40:56;;;;;;;20.17;10.97;;;;;;;;;;5074018;28;20243;-69
2022/01/12 05:43:27;;;;;;;17.47;9.83;;;;;;;;;;5074349;28;20214;-69
2022/01/12 05:45:57;;;;;;;19.87;9.37;;;;;;;;;;5057727;28;20224;-68
2022/01/12 05:51:08;;;;;;;24.73;11.03;;;;;;;;;;5074980;28;20220;-68
2022/01/12 05:53:36;;;;;;;23.23;12.27;;;;;;;;;;5057534;28;20621;-71
2022/01/12 05:56:04;;;;;;;22.27;11.67;;;;;;;;;;5073941;28;20223;-68
2022/01/12 05:58:32;;;;;;;23.97;12.37;;;;;;;;;;5074964;28;20211;-71
2022/01/12 06:00:59;;;;;;;20.30;11.47;;;;;;;;;;5074861;28;20223;-70
2022/01/12 06:03:27;;;;;;;20.63;12.03;;;;;;;;;;5060437;28;20235;-71
2022/01/12 06:06:11;;;;;;;21.80;11.77;;;;;;;;;;5046389;28;20223;-71
2022/01/12 06:08:43;;;;;;;27.00;12.73;;;;;;;;;;5060706;28;20596;-70
2022/01/12 06:11:12;;;;;;;23.50;13.03;;;;;;;;;;5044297;28;20220;-70
2022/01/12 06:13:41;;;;;;;21.77;11.90;;;;;;;;;;5061000;28;20227;-71
2022/01/12 06:16:09;;;;;;;14.57;8.20;;;;;;;;;;5046314;28;20228;-71
2022/01/12 06:18:39;;;;;;;16.63;9.70;;;;;;;;;;5062103;28;20236;-71
2022/01/12 06:21:06;;;;;;;17.93;8.83;;;;;;;;;;5061207;28;20805;-71
2022/01/12 06:23:47;;;;;;;17.60;8.90;;;;;;;;;;5062803;28;20219;-68
2022/01/12 06:26:23;;;;;;;16.87;9.47;;;;;;;;;;5078668;28;20228;-71
2022/01/12 06:29:22;;;;;;;14.80;8.20;;;;;;;;;;5060890;28;20216;-70
2022/01/12 06:31:45;;;;;;;22.53;10.57;;;;;;;;;;5066002;28;20239;-71
2022/01/12 06:34:12;;;;;;;23.93;13.00;;;;;;;;;;5054897;28;20299;-70
2022/01/12 06:36:41;;;;;;;24.47;12.57;;;;;;;;;;5069999;28;20511;-70
2022/01/12 06:39:12;;;;;;;23.97;12.40;;;;;;;;;;5053227;28;20207;-71
2022/01/12 06:41:40;;;;;;;21.83;12.17;;;;;;;;;;5036990;28;20180;-70
2022/01/12 06:44:08;;;;;;;25.60;12.60;;;;;;;;;;5036962;28;20200;-69
2022/01/12 06:46:42;;;;;;;21.33;12.33;;;;;;;;;;5069941;28;20310;-69
2022/01/12 06:49:11;;;;;;;24.23;12.57;;;;;;;;;;5020913;28;20267;-70
2022/01/12 06:51:39;;;;;;;23.70;12.07;;;;;;;;;;5020498;28;20192;-68
2022/01/12 06:54:07;;;;;;;18.93;7.70;;;;;;;;;;5020826;28;20196;-70
2022/01/12 06:56:34;;;;;;;22.93;11.63;;;;;;;;;;5053258;28;20282;-68
2022/01/12 06:59:02;;;;;;;21.50;12.07;;;;;;;;;;5036624;28;20200;-70
2022/01/12 07:01:36;;;;;;;22.30;11.93;;;;;;;;;;5069550;28;20518;-68
2022/01/12 07:04:05;;;;;;;22.73;11.67;;;;;;;;;;5053728;28;20670;-70
2022/01/12 07:06:34;;;;;;;26.77;13.20;;;;;;;;;;5036708;28;20196;-70
2022/01/12 07:09:03;;;;;;;26.83;13.33;;;;;;;;;;5052944;28;20658;-70
2022/01/12 07:11:57;;;;;;;24.33;12.30;;;;;;;;;;5049189;28;20262;-69
2022/01/12 07:14:29;;;;;;;21.90;11.73;;;;;;;;;;5053658;28;20211;-70
2022/01/12 07:16:57;;;;;;;28.10;13.77;;;;;;;;;;5069069;28;20219;-70
2022/01/12 07:19:25;;;;;;;31.07;13.63;;;;;;;;;;5052642;28;20680;-70
2022/01/12 07:21:53;;;;;;;21.37;11.40;;;;;;;;;;5068973;28;20203;-70
2022/01/12 07:24:20;;;;;;;19.77;11.27;;;;;;;;;;5062406;28;20199;-70
2022/01/12 07:26:48;;;;;;;24.77;12.67;;;;;;;;;;5073918;28;20664;-70
2022/01/12 07:29:16;;;;;;;27.57;13.50;;;;;;;;;;5055751;28;20197;-70
2022/01/12 07:31:45;;;;;;;24.40;12.53;;;;;;;;;;5073413;28;20677;-70
2022/01/12 07:34:14;;;;;;;26.10;12.27;;;;;;;;;;5071866;28;20241;-70
2022/01/12 07:36:42;;;;;;;33.23;15.67;;;;;;;;;;5072258;28;20192;-70
2022/01/12 07:39:10;;;;;;;27.47;13.10;;;;;;;;;;5072564;28;20195;-70
2022/01/12 07:41:37;;;;;;;46.73;18.97;;;;;;;;;;5072601;28;20210;-70
2022/01/12 07:44:05;;;;;;;36.03;16.63;;;;;;;;;;5073040;28;20191;-70
2022/01/12 07:46:32;;;;;;;30.70;15.87;;;;;;;;;;5072185;28;20226;-68
2022/01/12 07:48:59;;;;;;;24.30;13.40;;;;;;;;;;5072039;28;20204;-70
2022/01/12 07:51:27;;;;;;;29.20;13.67;;;;;;;;;;5072118;28;20198;-70
2022/01/12 07:53:54;;;;;;;25.80;13.13;;;;;;;;;;5071719;28;20196;-70
2022/01/12 07:56:21;;;;;;;23.83;12.87;;;;;;;;;;5071984;28;20680;-70
2022/01/12 07:58:49;;;;;;;22.90;13.20;;;;;;;;;;5055701;28;20219;-70
2022/01/12 08:01:22;;;;;;;28.73;13.90;;;;;;;;;;5073280;28;20535;-70
2022/01/12 08:03:50;;;;;;;27.30;13.73;;;;;;;;;;5071478;28;20245;-70
2022/01/12 08:06:17;;;;;;;27.30;13.20;;;;;;;;;;5072970;28;20195;-70
2022/01/12 08:08:45;;;;;;;29.73;15.10;;;;;;;;;;5071969;28;20198;-70
2022/01/12 08:11:12;;;;;;;33.00;14.57;;;;;;;;;;5071840;28;20204;-70
2022/01/12 08:13:39;;;;;;;31.60;15.53;;;;;;;;;;5072004;28;20196;-70
2022/01/12 08:16:06;;;;;;;26.13;14.17;;;;;;;;;;5071677;28;20242;-69
2022/01/12 08:18:34;;;;;;;29.80;15.37;;;;;;;;;;5071532;28;20191;-70
2022/01/12 08:21:04;;;;;;;29.87;14.83;;;;;;;;;;5071720;28;20191;-70
2022/01/12 08:23:31;;;;;;;31.00;15.80;;;;;;;;;;5072545;28;20259;-69
2022/01/12 08:26:02;;;;;;;31.50;14.93;;;;;;;;;;5088664;28;20516;-70
2022/01/12 08:28:30;;;;;;;21.90;12.30;;;;;;;;;;5071587;28;20660;-70
2022/01/12 08:30:57;;;;;;;24.60;13.63;;;;;;;;;;5054936;28;20226;-70
2022/01/12 08:33:26;;;;;;;24.43;12.97;;;;;;;;;;5071368;28;20198;-70
2022/01/12 08:35:54;;;;;;;26.13;13.93;;;;;;;;;;5071093;28;20211;-70
2022/01/12 08:38:23;;;;;;;25.30;14.07;;;;;;;;;;5071239;28;20606;-70
2022/01/12 08:40:50;;;;;;;23.80;13.23;;;;;;;;;;5054891;28;20199;-70
2022/01/12 08:43:18;;;;;;;33.77;16.10;;;;;;;;;;5071654;28;20192;-70
2022/01/12 08:45:45;;;;;;;28.37;13.03;;;;;;;;;;5072479;28;20206;-69
2022/01/12 08:48:12;;;;;;;32.37;18.17;;;;;;;;;;5071637;28;20234;-69
2022/01/12 08:50:40;;;;;;;58.87;23.83;;;;;;;;;;5071177;28;20199;-69
2022/01/12 08:53:07;;;;;;;25.93;14.20;;;;;;;;;;5071449;28;20196;-70
2022/01/12 08:55:34;;;;;;;29.70;15.77;;;;;;;;;;5071381;28;20218;-70
2022/01/12 08:58:03;;;;;;;25.07;14.50;;;;;;;;;;5072113;28;20199;-70
2022/01/12 09:00:34;;;;;;;24.43;13.57;;;;;;;;;;5054869;28;20253;-69
2022/01/12 09:03:02;;;;;;;26.13;14.50;;;;;;;;;;5055099;28;20190;-69
2022/01/12 09:05:29;;;;;;;25.00;13.80;;;;;;;;;;5072184;28;20249;-70
2022/01/12 09:07:56;;;;;;;27.47;15.40;;;;;;;;;;5071268;28;20650;-70
2022/01/12 09:10:27;;;;;;;28.97;14.27;;;;;;;;;;5070881;28;20204;-70
2022/01/12 09:12:54;;;;;;;21.43;12.60;;;;;;;;;;5070887;28;20203;-70
2022/01/12 09:15:25;;;;;;;25.20;13.40;;;;;;;;;;5071075;28;20310;-70
2022/01/12 09:17:54;;;;;;;24.33;13.50;;;;;;;;;;5038446;28;20184;-70
2022/01/12 09:20:21;;;;;;;22.13;13.10;;;;;;;;;;5054609;28;20204;-70
2022/01/12 09:22:49;;;;;;;24.23;13.00;;;;;;;;;;5070883;28;20200;-71
2022/01/12 09:25:17;;;;;;;27.70;14.23;;;;;;;;;;5072428;28;20207;-69
2022/01/12 09:27:44;;;;;;;25.13;14.17;;;;;;;;;;5071138;28;20207;-70
2022/01/12 09:30:12;;;;;;;29.30;14.43;;;;;;;;;;5071440;28;20202;-70
2022/01/12 09:32:40;;;;;;;24.10;12.93;;;;;;;;;;5070336;28;20576;-70
2022/01/12 09:35:13;;;;;;;24.40;13.67;;;;;;;;;;5070999;28;20199;-70
2022/01/12 09:37:41;;;;;;;25.30;14.17;;;;;;;;;;5071020;28;20198;-70
2022/01/12 09:40:09;;;;;;;23.00;13.10;;;;;;;;;;5072131;28;20208;-69
2022/01/12 09:42:37;;;;;;;27.03;13.43;;;;;;;;;;5070670;28;20195;-70
2022/01/12 09:45:07;;;;;;;23.53;13.70;;;;;;;;;;5070730;28;20195;-70
2022/01/12 09:47:34;;;;;;;24.77;12.83;;;;;;;;;;5072866;28;20230;-69
2022/01/12 09:50:02;;;;;;;26.17;12.27;;;;;;;;;;5075535;28;20541;-70
2022/01/12 09:52:30;;;;;;;25.37;14.23;;;;;;;;;;5057623;28;20191;-70
2022/01/12 09:54:57;;;;;;;22.93;13.30;;;;;;;;;;5074354;28;20295;-70
2022/01/12 09:57:24;;;;;;;24.53;13.63;;;;;;;;;;5075493;28;20209;-70
2022/01/12 09:59:52;;;;;;;22.03;12.77;;;;;;;;;;5074235;28;20256;-70
2022/01/12 10:02:21;;;;;;;23.07;12.97;;;;;;;;;;5074408;28;20227;-70
2022/01/12 10:05:06;;;;;;;26.43;14.87;;;;;;;;;;5074129;28;20206;-69
2022/01/12 10:07:34;;;;;;;28.87;13.57;;;;;;;;;;5057492;28;20186;-69
2022/01/12 10:10:07;;;;;;;20.47;12.07;;;;;;;;;;5074055;28;20196;-70
2022/01/12 10:12:35;;;;;;;22.77;12.57;;;;;;;;;;5074358;28;20221;-69
2022/01/12 10:15:11;;;;;;;22.53;12.57;;;;;;;;;;5074275;28;20257;-69
2022/01/12 10:17:39;;;;;;;22.63;13.57;;;;;;;;;;5073945;28;20539;-69
2022/01/12 10:20:14;;;;;;;27.53;14.53;;;;;;;;;;5073941;28;20710;-69
2022/01/12 10:22:57;;;;;;;29.30;14.67;;;;;;;;;;5073474;28;20649;-70
2022/01/12 10:25:25;;;;;;;24.60;12.53;;;;;;;;;;5073765;28;20194;-70
2022/01/12 10:27:53;;;;;;;19.37;11.17;;;;;;;;;;5074156;28;20649;-69
2022/01/12 10:30:22;;;;;;;21.93;12.27;;;;;;;;;;5074844;28;20692;-70
2022/01/12 10:33:04;;;;;;;22.27;12.70;;;;;;;;;;5090153;28;20223;-69
2022/01/12 10:35:36;;;;;;;27.63;14.37;;;;;;;;;;5073518;28;20219;-69
2022/01/12 10:38:14;;;;;;;23.40;13.13;;;;;;;;;;5073250;28;20188;-70
2022/01/12 10:41:00;;;;;;;22.43;12.27;;;;;;;;;;5073778;28;20182;-69
2022/01/12 10:43:37;;;;;;;21.63;10.77;;;;;;;;;;5073616;28;20207;-69
2022/01/12 10:46:10;;;;;;;23.63;12.97;;;;;;;;;;5057075;28;20621;-69
2022/01/12 10:48:43;;;;;;;24.17;12.13;;;;;;;;;;5073474;28;20233;-69
2022/01/12 10:51:13;;;;;;;24.60;13.87;;;;;;;;;;5073563;28;20267;-69
2022/01/12 10:53:41;;;;;;;28.33;14.00;;;;;;;;;;5040480;28;20249;-69
2022/01/12 10:56:22;;;;;;;22.87;12.80;;;;;;;;;;5089625;28;20643;-69
2022/01/12 10:58:51;;;;;;;27.10;15.17;;;;;;;;;;5056499;28;20626;-69
2022/01/12 11:01:22;;;;;;;20.90;12.57;;;;;;;;;;5073040;28;20227;-69
2022/01/12 11:03:50;;;;;;;26.13;13.03;;;;;;;;;;5056750;28;20196;-70
2022/01/12 11:06:17;;;;;;;24.67;12.97;;;;;;;;;;5056325;28;20576;-70
2022/01/12 11:08:48;;;;;;;24.87;12.70;;;;;;;;;;5056458;28;20210;-70
2022/01/12 11:11:18;;;;;;;21.17;13.20;;;;;;;;;;5072467;28;20179;-70
2022/01/12 11:13:51;;;;;;;25.83;13.77;;;;;;;;;;5072859;28;20294;-69
2022/01/12 11:16:27;;;;;;;22.57;12.57;;;;;;;;;;5072730;28;20207;-70
2022/01/12 11:18:55;;;;;;;24.50;13.37;;;;;;;;;;5072687;28;20495;-69
2022/01/12 11:21:41;;;;;;;24.00;12.47;;;;;;;;;;5056460;28;20194;-69
2022/01/12 11:24:13;;;;;;;21.63;12.80;;;;;;;;;;5072586;28;20186;-69
2022/01/12 11:26:52;;;;;;;20.07;12.73;;;;;;;;;;5056194;28;20192;-70
2022/01/12 11:29:27;;;;;;;24.47;13.77;;;;;;;;;;5056238;28;20175;-69
2022/01/12 11:32:13;;;;;;;23.20;12.50;;;;;;;;;;5072282;28;20231;-69
2022/01/12 11:34:41;;;;;;;25.33;13.83;;;;;;;;;;5056457;28;20646;-70
2022/01/12 11:37:14;;;;;;;21.53;12.37;;;;;;;;;;5072181;28;20587;-70
2022/01/12 11:39:42;;;;;;;23.50;12.53;;;;;;;;;;5072418;28;20194;-70
2022/01/12 11:42:10;;;;;;;25.00;13.83;;;;;;;;;;5072409;28;20191;-69
2022/01/12 11:44:38;;;;;;;27.30;14.80;;;;;;;;;;5072024;28;20199;-69
2022/01/12 11:47:12;;;;;;;27.07;13.87;;;;;;;;;;5055721;28;20195;-70
2022/01/12 11:49:44;;;;;;;26.57;15.13;;;;;;;;;;5055546;28;20539;-70
2022/01/12 11:52:26;;;;;;;25.93;13.73;;;;;;;;;;5072428;28;20202;-70
2022/01/12 11:55:09;;;;;;;33.70;16.90;;;;;;;;;;5072182;28;20176;-70
2022/01/12 11:57:42;;;;;;;22.17;13.37;;;;;;;;;;5071783;28;20175;-71
2022/01/12 12:00:10;;;;;;;27.93;14.50;;;;;;;;;;5072881;28;20184;-70
2022/01/12 12:02:45;;;;;;;27.53;15.07;;;;;;;;;;5055682;28;20276;-69
2022/01/12 12:05:15;;;;;;;25.13;13.67;;;;;;;;;;5071526;28;20187;-70
2022/01/12 12:08:03;;;;;;;34.13;17.27;;;;;;;;;;5073163;28;20257;-70
2022/01/12 12:10:39;;;;;;;35.87;16.73;;;;;;;;;;5071771;28;20310;-71
2022/01/12 12:13:09;;;;;;;27.57;14.50;;;;;;;;;;5072043;28;20179;-70
2022/01/12 12:15:37;;;;;;;25.20;14.03;;;;;;;;;;5071604;28;20227;-70
2022/01/12 12:18:06;;;;;;;35.07;16.13;;;;;;;;;;5071800;28;20249;-70
2022/01/12 12:20:34;;;;;;;41.40;18.17;;;;;;;;;;5071611;28;20529;-70
2022/01/12 12:23:02;;;;;;;29.70;14.60;;;;;;;;;;5071885;28;20195;-70
2022/01/12 12:25:31;;;;;;;26.47;14.17;;;;;;;;;;5071651;28;20196;-70
2022/01/12 12:28:02;;;;;;;30.43;14.77;;;;;;;;;;5071931;28;20637;-70
2022/01/12 12:30:32;;;;;;;30.27;15.50;;;;;;;;;;5071843;28;20172;-70
2022/01/12 12:33:08;;;;;;;28.87;14.83;;;;;;;;;;5054820;28;20705;-70
2022/01/12 12:35:35;;;;;;;27.67;13.37;;;;;;;;;;5071664;28;20199;-71
2022/01/12 12:38:09;;;;;;;24.73;13.23;;;;;;;;;;5071877;28;20187;-70
2022/01/12 12:40:45;;;;;;;29.00;14.90;;;;;;;;;;5071826;28;20187;-70
2022/01/12 12:43:25;;;;;;;23.40;13.27;;;;;;;;;;5055056;28;20179;-69
2022/01/12 12:45:59;;;;;;;27.17;14.77;;;;;;;;;;5071393;28;20192;-69
2022/01/12 12:48:32;;;;;;;29.40;15.30;;;;;;;;;;5061517;28;20188;-69
2022/01/12 12:51:04;;;;;;;30.33;14.33;;;;;;;;;;5061707;28;20176;-69
2022/01/12 12:53:34;;;;;;;34.37;17.70;;;;;;;;;;5060289;28;20401;-69
2022/01/12 12:56:04;;;;;;;28.30;15.47;;;;;;;;;;5059565;28;20199;-69
2022/01/12 12:58:34;;;;;;;34.97;17.57;;;;;;;;;;5059199;28;20283;-70
2022/01/12 13:01:13;;;;;;;28.83;14.87;;;;;;;;;;5059563;28;20187;-69
2022/01/12 13:03:50;;;;;;;29.07;15.60;;;;;;;;;;5043809;28;20245;-69
2022/01/12 13:06:26;;;;;;;35.00;16.13;;;;;;;;;;5044022;28;20242;-69
2022/01/12 13:08:58;;;;;;;27.57;14.97;;;;;;;;;;5029588;28;20203;-69
2022/01/12 13:11:30;;;;;;;443.57;219.53;;;;;;;;;;5044758;28;20188;-69
2022/01/12 13:14:01;;;;;;;172.60;72.67;;;;;;;;;;5060306;28;20255;-69
2022/01/12 13:16:29;;;;;;;164.33;64.80;;;;;;;;;;5012672;28;20232;-69
2022/01/12 13:19:20;;;;;;;88.23;32.60;;;;;;;;;;5042808;28;20258;-69
2022/01/12 13:21:48;;;;;;;142.07;48.90;;;;;;;;;;5033644;28;20345;-69
2022/01/12 13:24:15;;;;;;;163.80;49.30;;;;;;;;;;5064355;28;20271;-69
2022/01/12 13:26:43;;;;;;;200.10;56.27;;;;;;;;;;5063205;28;20211;-69
2022/01/12 13:29:12;;;;;;;399.93;116.43;;;;;;;;;;5065267;28;20301;-69
2022/01/12 13:31:46;;;;;;;48.60;23.23;;;;;;;;;;5063418;28;20848;-70
2022/01/12 13:34:14;;;;;;;41.27;20.83;;;;;;;;;;5062651;28;20559;-69
2022/01/12 13:36:49;;;;;;;373.03;92.30;;;;;;;;;;5062635;28;20223;-69
2022/01/12 13:39:21;;;;;;;338.97;105.63;;;;;;;;;;5047657;28;20182;-69
2022/01/12 13:41:51;;;;;;;266.23;86.97;;;;;;;;;;5048547;28;20199;-68
2022/01/12 13:44:25;;;;;;;35.53;19.87;;;;;;;;;;5046442;28;20281;-70
2022/01/12 13:47:23;;;;;;;76.80;26.83;;;;;;;;;;5064608;28;20192;-69
2022/01/12 13:50:07;;;;;;;188.73;60.60;;;;;;;;;;5045957;28;20188;-70
2022/01/12 13:52:35;;;;;;;35.83;17.43;;;;;;;;;;5029794;28;20554;-69
2022/01/12 13:55:14;;;;;;;502.03;165.73;;;;;;;;;;5064999;28;20195;-69
2022/01/12 13:57:43;;;;;;;134.07;50.37;;;;;;;;;;5047468;28;20208;-70
2022/01/12 14:00:21;;;;;;;52.60;24.83;;;;;;;;;;5051320;28;20293;-69
2022/01/12 14:02:48;;;;;;;48.90;21.80;;;;;;;;;;5047380;28;20619;-69
2022/01/12 14:05:20;;;;;;;39.80;20.37;;;;;;;;;;5046996;28;20220;-69
2022/01/12 14:10:52;;;;;;;85.87;36.17;;;;;;;;;;5057162;28;20227;-71
2022/01/12 14:13:29;;;;;;;120.33;49.40;;;;;;;;;;5080912;28;20263;-73
2022/01/12 14:16:07;;;;;;;110.40;42.97;;;;;;;;;;5061610;28;20228;-75
2022/01/12 14:18:35;;;;;;;87.30;33.43;;;;;;;;;;5055910;28;20284;-75
2022/01/12 14:21:19;;;;;;;78.00;31.10;;;;;;;;;;5073169;28;20224;-72
2022/01/12 14:23:47;;;;;;;85.30;31.27;;;;;;;;;;5072990;28;20306;-75
2022/01/12 14:26:25;;;;;;;76.53;30.30;;;;;;;;;;5072155;28;20318;-71
2022/01/12 14:28:53;;;;;;;53.10;25.07;;;;;;;;;;5072853;28;20712;-74
2022/01/12 14:31:22;;;;;;;61.10;28.20;;;;;;;;;;5071794;28;20688;-75
2022/01/12 14:33:50;;;;;;;104.73;34.37;;;;;;;;;;5072023;28;20227;-74
2022/01/12 14:36:18;;;;;;;141.77;44.23;;;;;;;;;;5056074;28;20796;-76
2022/01/12 14:38:46;;;;;;;87.20;32.50;;;;;;;;;;5072767;28;20231;-74
2022/01/12 14:41:14;;;;;;;45.77;23.20;;;;;;;;;;5055536;28;20253;-75
2022/01/12 14:43:41;;;;;;;60.77;28.17;;;;;;;;;;5056196;28;20235;-74
2022/01/12 14:46:08;;;;;;;59.07;28.27;;;;;;;;;;5071265;28;20239;-74
2022/01/12 14:48:36;;;;;;;47.20;23.03;;;;;;;;;;5041059;28;20235;-75
2022/01/12 14:51:03;;;;;;;39.97;20.80;;;;;;;;;;5059597;28;20241;-74
2022/01/12 14:53:31;;;;;;;47.27;22.97;;;;;;;;;;5069436;28;20230;-74
2022/01/12 14:56:00;;;;;;;39.73;20.40;;;;;;;;;;5071955;28;20231;-75
2022/01/12 14:58:29;;;;;;;43.47;21.07;;;;;;;;;;5071898;28;20692;-73
2022/01/12 15:00:56;;;;;;;36.67;19.17;;;;;;;;;;5073308;28;20716;-74
2022/01/12 15:03:26;;;;;;;35.63;19.50;;;;;;;;;;5055505;28;20356;-74
2022/01/12 15:05:54;;;;;;;39.10;18.80;;;;;;;;;;5072676;28;20302;-73
2022/01/12 15:08:22;;;;;;;33.43;18.93;;;;;;;;;;5072153;28;20231;-72
2022/01/12 15:10:50;;;;;;;36.73;18.63;;;;;;;;;;5071389;28;20584;-72
2022/01/12 15:13:25;;;;;;;40.93;19.60;;;;;;;;;;5038985;28;20235;-71
2022/01/12 15:15:55;;;;;;;57.70;25.73;;;;;;;;;;5055870;28;20516;-69
2022/01/12 15:18:24;;;;;;;42.23;20.77;;;;;;;;;;5055019;28;20243;-71
2022/01/12 15:20:57;;;;;;;77.83;41.00;;;;;;;;;;5052103;28;20274;-70
2022/01/12 15:23:24;;;;;;;115.17;56.43;;;;;;;;;;5051738;28;20251;-72
2022/01/12 15:25:54;;;;;;;83.27;42.77;;;;;;;;;;5039489;28;20208;-72
2022/01/12 15:28:21;;;;;;;86.97;38.00;;;;;;;;;;5045138;28;20216;-70
2022/01/12 15:30:49;;;;;;;62.07;27.50;;;;;;;;;;5067999;28;20269;-71
2022/01/12 15:33:16;;;;;;;52.37;25.70;;;;;;;;;;5057092;28;20230;-70
2022/01/12 15:35:44;;;;;;;53.93;26.87;;;;;;;;;;5061615;28;20263;-70
2022/01/12 15:38:12;;;;;;;54.13;24.83;;;;;;;;;;5061453;28;20252;-70
2022/01/12 15:40:41;;;;;;;49.33;24.93;;;;;;;;;;5060058;28;20701;-70
2022/01/12 15:43:08;;;;;;;46.43;23.60;;;;;;;;;;5050716;28;20688;-71
2022/01/12 15:45:37;;;;;;;46.33;22.23;;;;;;;;;;5070439;28;20215;-70
2022/01/12 15:48:06;;;;;;;71.03;28.40;;;;;;;;;;5043202;28;20220;-71
2022/01/12 15:50:34;;;;;;;57.00;26.63;;;;;;;;;;5057542;28;20212;-71
2022/01/12 15:53:03;;;;;;;47.70;23.50;;;;;;;;;;5087247;28;20226;-70